createdAt,value
2023-03-11T00:00:31.773Z,6.50
2023-03-11T00:03:04.899Z,7.45
2023-03-11T00:05:38.602Z,11.73
2023-03-11T00:08:11.210Z,8.07
2023-03-11T00:10:44.644Z,10.23
2023-03-11T00:13:19.070Z,6.07
2023-03-11T00:15:51.686Z,8.75
2023-03-11T00:18:25.770Z,6.82
2023-03-11T00:21:00.358Z,11.65
2023-03-11T00:23:32.441Z,10.45
2023-03-11T00:26:03.526Z,9.15
2023-03-11T00:28:36.669Z,8.52
2023-03-11T00:31:07.999Z,11.00
2023-03-11T00:33:38.472Z,7.07
2023-03-11T00:36:10.135Z,6.65
2023-03-11T00:38:40.724Z,7.78
2023-03-11T00:41:11.283Z,10.25
2023-03-11T00:43:44.311Z,7.43
2023-03-11T00:46:15.082Z,7.85
2023-03-11T00:48:45.756Z,8.77
2023-03-11T00:51:18.376Z,6.22
2023-03-11T00:53:50.246Z,8.23
2023-03-11T00:56:21.067Z,11.02
2023-03-11T00:58:54.288Z,11.75
2023-03-11T01:01:25.435Z,8.90
2023-03-11T01:03:55.965Z,9.98
2023-03-11T01:06:32.647Z,7.18
2023-03-11T01:09:09.857Z,7.85
2023-03-11T01:11:40.712Z,7.38
2023-03-11T01:14:14.820Z,6.30
2023-03-11T01:16:45.494Z,7.10
2023-03-11T01:19:16.128Z,9.52
2023-03-11T01:21:46.632Z,9.68
2023-03-11T01:24:17.065Z,6.25
2023-03-11T01:26:47.872Z,8.38
2023-03-11T01:29:20.953Z,8.55
2023-03-11T01:31:51.642Z,9.63
2023-03-11T01:34:22.192Z,8.00
2023-03-11T01:36:52.730Z,9.32
2023-03-11T01:39:23.497Z,9.70
2023-03-11T01:41:53.985Z,8.80
2023-03-11T01:44:27.130Z,9.02
2023-03-11T01:47:33.396Z,5.68
2023-03-11T01:50:04.439Z,9.48
2023-03-11T01:52:34.943Z,7.82
2023-03-11T01:55:07.015Z,7.72
2023-03-11T01:57:38.507Z,9.90
2023-03-11T02:00:15.859Z,7.63
2023-03-11T02:02:51.486Z,8.93
2023-03-11T02:05:24.253Z,7.63
2023-03-11T02:07:58.031Z,9.48
2023-03-11T02:10:33.768Z,9.63
2023-03-11T02:13:06.819Z,10.30
2023-03-11T02:15:40.333Z,8.02
2023-03-11T02:18:11.708Z,7.38
2023-03-11T02:20:50.032Z,9.93
2023-03-11T02:23:24.676Z,9.52
2023-03-11T02:26:04.385Z,10.70
2023-03-11T02:28:39.726Z,6.05
2023-03-11T02:31:11.432Z,9.57
2023-03-11T02:33:43.003Z,8.32
2023-03-11T02:36:35.239Z,7.28
2023-03-11T02:39:07.902Z,7.63
2023-03-11T02:41:41.929Z,5.25
2023-03-11T02:44:18.908Z,5.70
2023-03-11T02:46:49.965Z,10.40
2023-03-11T02:49:21.619Z,8.27
2023-03-11T02:51:52.535Z,6.65
2023-03-11T02:54:23.075Z,8.38
2023-03-11T02:56:53.871Z,6.00
2023-03-11T02:59:27.407Z,6.78
2023-03-11T03:01:58.959Z,4.88
2023-03-11T03:04:29.644Z,11.45
2023-03-11T03:07:02.447Z,7.43
2023-03-11T03:09:35.039Z,5.30
2023-03-11T03:12:06.577Z,6.50
2023-03-11T03:14:41.027Z,9.85
2023-03-11T03:17:11.704Z,7.13
2023-03-11T03:19:43.007Z,7.53
2023-03-11T03:22:14.208Z,6.70
2023-03-11T03:24:45.522Z,7.85
2023-03-11T03:27:16.360Z,6.97
2023-03-11T03:29:49.630Z,7.55
2023-03-11T03:32:20.421Z,6.28
2023-03-11T03:34:50.982Z,6.25
2023-03-11T03:37:21.650Z,5.32
2023-03-11T03:39:52.285Z,5.15
2023-03-11T03:42:22.751Z,5.88
2023-03-11T03:44:55.993Z,6.47
2023-03-11T03:47:26.509Z,4.22
2023-03-11T03:49:57.186Z,7.82
2023-03-11T03:52:27.858Z,4.90
2023-03-11T03:54:58.640Z,6.60
2023-03-11T03:57:29.311Z,8.45
2023-03-11T04:00:02.730Z,5.25
2023-03-11T04:02:35.161Z,5.55
2023-03-11T04:05:06.036Z,8.65
2023-03-11T04:07:38.261Z,6.80
2023-03-11T04:10:11.244Z,6.30
2023-03-11T04:12:42.645Z,7.63
2023-03-11T04:15:16.234Z,7.80
2023-03-11T04:17:47.764Z,5.28
2023-03-11T04:20:18.647Z,7.05
2023-03-11T04:22:52.718Z,7.50
2023-03-11T04:25:26.958Z,7.82
2023-03-11T04:27:58.136Z,10.27
2023-03-11T04:30:32.169Z,6.35
2023-03-11T04:33:02.838Z,7.10
2023-03-11T04:35:34.485Z,8.65
2023-03-11T04:38:05.240Z,7.45
2023-03-11T04:40:35.904Z,10.00
2023-03-11T04:43:07.411Z,10.02
2023-03-11T04:45:41.647Z,7.22
2023-03-11T04:48:15.000Z,7.63
2023-03-11T04:50:45.820Z,10.38
2023-03-11T04:53:16.928Z,9.45
2023-03-11T04:55:48.105Z,7.65
2023-03-11T04:58:18.800Z,8.35
2023-03-11T05:00:53.618Z,8.45
2023-03-11T05:03:25.682Z,10.10
2023-03-11T05:05:56.867Z,10.73
2023-03-11T05:08:27.860Z,9.77
2023-03-11T05:10:58.508Z,10.10
2023-03-11T05:13:29.018Z,10.30
2023-03-11T05:16:02.475Z,9.85
2023-03-11T05:18:32.970Z,8.23
2023-03-11T05:21:04.010Z,7.32
2023-03-11T05:23:36.699Z,11.75
2023-03-11T05:26:07.764Z,7.78
2023-03-11T05:28:38.871Z,9.00
2023-03-11T05:31:14.614Z,6.95
2023-03-11T05:33:45.541Z,8.65
2023-03-11T05:36:17.705Z,12.35
2023-03-11T05:38:48.921Z,8.63
2023-03-11T05:41:19.822Z,13.32
2023-03-11T05:43:51.410Z,15.30
2023-03-11T05:46:24.631Z,13.85
2023-03-11T05:48:55.623Z,15.20
2023-03-11T05:51:26.538Z,13.73
2023-03-11T05:53:58.964Z,13.00
2023-03-11T05:56:38.198Z,11.10
2023-03-11T05:59:09.555Z,11.55
2023-03-11T06:01:43.494Z,10.32
2023-03-11T06:04:15.151Z,15.27
2023-03-11T06:06:46.540Z,11.93
2023-03-11T06:09:19.199Z,13.07
2023-03-11T06:11:49.703Z,10.80
2023-03-11T06:14:22.557Z,13.48
2023-03-11T06:16:57.205Z,11.75
2023-03-11T06:19:27.688Z,11.45
2023-03-11T06:21:58.352Z,10.73
2023-03-11T06:24:28.986Z,13.73
2023-03-11T06:27:00.254Z,15.65
2023-03-11T06:29:33.021Z,12.23
2023-03-11T06:32:06.308Z,13.70
2023-03-11T06:34:37.980Z,15.13
2023-03-11T06:37:09.932Z,12.35
2023-03-11T06:39:40.529Z,11.30
2023-03-11T06:42:13.337Z,11.60
2023-03-11T06:44:45.743Z,12.93
2023-03-11T06:47:18.937Z,10.25
2023-03-11T06:49:49.593Z,8.73
2023-03-11T06:52:20.299Z,11.18
2023-03-11T06:54:50.971Z,11.40
2023-03-11T06:57:21.873Z,10.02
2023-03-11T06:59:54.395Z,13.23
2023-03-11T07:02:28.164Z,12.43
2023-03-11T07:04:58.792Z,12.30
2023-03-11T07:07:29.375Z,12.52
2023-03-11T07:10:00.757Z,15.48
2023-03-11T07:12:31.367Z,12.18
2023-03-11T07:15:03.060Z,10.90
2023-03-11T07:17:37.566Z,10.40
2023-03-11T07:20:09.410Z,11.32
2023-03-11T07:22:40.069Z,10.15
2023-03-11T07:25:11.404Z,14.02
2023-03-11T07:27:42.576Z,14.25
2023-03-11T07:30:14.943Z,16.42
2023-03-11T07:32:48.175Z,13.63
2023-03-11T07:35:18.988Z,10.75
2023-03-11T07:37:49.620Z,8.55
2023-03-11T07:40:21.235Z,7.88
2023-03-11T07:42:52.743Z,5.75
2023-03-11T07:45:24.851Z,6.13
2023-03-11T07:47:57.960Z,7.63
2023-03-11T07:50:33.882Z,4.90
2023-03-11T07:53:04.639Z,4.70
2023-03-11T07:55:35.316Z,3.72
2023-03-11T07:58:05.830Z,3.55
2023-03-11T08:00:36.332Z,3.40
2023-03-11T08:03:09.491Z,4.35
2023-03-11T08:05:40.011Z,4.25
2023-03-11T08:08:10.625Z,4.45
2023-03-11T08:10:41.349Z,5.07
2023-03-11T08:13:11.838Z,3.90
2023-03-11T08:15:42.380Z,5.95
2023-03-11T08:18:15.645Z,3.33
2023-03-11T08:20:46.269Z,2.53
2023-03-11T08:23:16.838Z,3.17
2023-03-11T08:25:47.379Z,2.78
2023-03-11T08:28:17.951Z,5.07
2023-03-11T08:30:48.490Z,2.85
2023-03-11T08:33:21.525Z,6.10
2023-03-11T08:35:52.192Z,7.28
2023-03-11T08:38:22.812Z,12.20
2023-03-11T08:40:53.340Z,8.13
2023-03-11T08:43:23.961Z,10.80
2023-03-11T08:45:54.518Z,7.40
2023-03-11T08:48:27.637Z,5.70
2023-03-11T08:50:58.691Z,3.90
2023-03-11T08:53:29.417Z,4.47
2023-03-11T08:55:59.973Z,17.58
2023-03-11T08:58:30.482Z,6.95
2023-03-11T09:01:01.084Z,3.80
2023-03-11T09:03:35.532Z,6.95
2023-03-11T09:06:08.884Z,6.70
2023-03-11T09:08:39.601Z,9.27
2023-03-11T09:11:10.979Z,17.60
2023-03-11T09:13:41.729Z,10.65
2023-03-11T09:16:16.333Z,12.00
2023-03-11T09:18:49.548Z,7.35
2023-03-11T09:21:20.569Z,7.07
2023-03-11T09:23:51.755Z,2.45
2023-03-11T09:26:22.401Z,4.55
2023-03-11T09:28:53.210Z,3.85
2023-03-11T09:31:23.938Z,9.85
2023-03-11T09:33:57.164Z,5.63
2023-03-11T09:36:27.810Z,2.95
2023-03-11T09:38:58.292Z,1.10
2023-03-11T09:41:51.517Z,1.38
2023-03-11T09:44:34.568Z,1.85
2023-03-11T09:47:34.251Z,1.10
2023-03-11T09:50:35.919Z,7.80
2023-03-11T09:53:33.597Z,4.55
2023-03-11T09:56:09.196Z,4.50
2023-03-11T09:58:44.677Z,5.00
2023-03-11T10:01:21.278Z,3.75
2023-03-11T10:03:53.235Z,3.28
2023-03-11T10:06:27.882Z,4.28
2023-03-11T10:09:04.349Z,5.28
2023-03-11T10:11:55.484Z,1.65
2023-03-11T10:14:45.379Z,5.95
2023-03-11T10:17:24.867Z,4.10
2023-03-11T10:20:01.338Z,4.35
2023-03-11T10:22:44.226Z,4.65
2023-03-11T10:25:18.367Z,1.38
2023-03-11T10:27:52.502Z,1.95
2023-03-11T10:30:29.184Z,9.15
2023-03-11T10:33:04.232Z,1.42
2023-03-11T10:35:42.247Z,5.07
2023-03-11T10:38:21.591Z,3.92
2023-03-11T10:40:56.917Z,2.45
2023-03-11T10:43:32.156Z,4.35
2023-03-11T10:46:02.905Z,2.17
2023-03-11T10:48:33.386Z,1.25
2023-03-11T10:51:06.809Z,4.47
2023-03-11T10:53:49.823Z,3.50
2023-03-11T10:56:30.318Z,7.68
2023-03-11T10:59:01.811Z,8.63
2023-03-11T11:01:33.259Z,7.07
2023-03-11T11:04:05.072Z,7.80
2023-03-11T11:06:37.910Z,9.50
2023-03-11T11:09:25.693Z,3.65
2023-03-11T11:12:08.722Z,4.25
2023-03-11T11:14:46.832Z,6.53
2023-03-11T11:17:30.093Z,4.25
2023-03-11T11:20:04.643Z,5.28
2023-03-11T11:22:35.386Z,4.88
2023-03-11T11:25:28.766Z,5.00
2023-03-11T11:28:00.571Z,2.88
2023-03-11T11:30:32.754Z,3.65
2023-03-11T11:33:25.667Z,2.80
2023-03-11T11:35:59.064Z,7.95
2023-03-11T11:38:32.450Z,8.25
2023-03-11T11:41:07.689Z,4.47
2023-03-11T11:46:24.508Z,6.75
2023-03-11T11:49:06.345Z,5.45
2023-03-11T11:51:42.882Z,4.15
2023-03-11T11:54:20.822Z,2.97
2023-03-11T11:56:53.971Z,4.45
2023-03-11T11:59:26.370Z,7.15
2023-03-11T12:02:07.482Z,4.82
2023-03-11T12:04:50.022Z,2.33
2023-03-11T12:07:38.778Z,3.92
2023-03-11T12:10:23.733Z,10.07
2023-03-11T12:13:22.456Z,5.65
2023-03-11T12:15:58.897Z,4.10
2023-03-11T12:18:36.172Z,2.97
2023-03-11T12:21:24.009Z,4.93
2023-03-11T12:24:08.050Z,5.00
2023-03-11T12:26:42.855Z,5.05
2023-03-11T12:29:31.419Z,5.75
2023-03-11T12:32:04.813Z,14.60
2023-03-11T12:34:38.595Z,3.97
2023-03-11T12:37:17.775Z,6.32
2023-03-11T12:39:48.225Z,5.60
2023-03-11T12:42:20.526Z,5.75
2023-03-11T12:44:54.484Z,4.82
2023-03-11T12:47:29.158Z,5.78
2023-03-11T12:50:20.327Z,4.85
2023-03-11T12:52:58.143Z,4.85
2023-03-11T12:55:37.484Z,7.40
2023-03-11T12:58:40.523Z,5.88
2023-03-11T13:01:47.323Z,5.35
2023-03-11T13:04:48.922Z,7.75
2023-03-11T13:07:51.381Z,6.00
2023-03-11T13:10:37.902Z,4.20
2023-03-11T13:13:40.818Z,5.30
2023-03-11T13:16:46.781Z,6.80
2023-03-11T13:19:40.023Z,7.15
2023-03-11T13:22:46.318Z,3.78
2023-03-11T13:25:41.901Z,4.82
2023-03-11T13:28:30.989Z,6.45
2023-03-11T13:31:14.997Z,5.75
2023-03-11T13:33:59.460Z,4.03
2023-03-11T13:36:45.625Z,5.75
2023-03-11T13:39:48.945Z,6.45
2023-03-11T13:42:29.702Z,6.25
2023-03-11T13:45:01.586Z,2.70
2023-03-11T13:47:34.690Z,3.28
2023-03-11T13:50:12.157Z,4.25
2023-03-11T13:52:50.437Z,8.27
2023-03-11T13:55:24.069Z,6.15
2023-03-11T13:57:56.464Z,12.93
2023-03-11T14:00:29.429Z,17.02
2023-03-11T14:03:01.800Z,9.20
2023-03-11T14:05:36.876Z,14.90
2023-03-11T14:08:22.358Z,8.02
2023-03-11T14:10:57.113Z,11.45
2023-03-11T14:13:29.471Z,17.88
2023-03-11T14:16:07.400Z,11.00
2023-03-11T14:18:41.294Z,9.20
2023-03-11T14:21:20.171Z,9.82
2023-03-11T14:23:52.593Z,9.68
2023-03-11T14:26:26.124Z,13.20
2023-03-11T14:28:59.151Z,7.25
2023-03-11T14:31:35.338Z,7.55
2023-03-11T14:34:07.996Z,9.27
2023-03-11T14:36:51.128Z,17.70
2023-03-11T14:39:33.943Z,5.60
2023-03-11T14:42:18.926Z,6.45
2023-03-11T14:44:53.161Z,12.45
2023-03-11T14:47:33.904Z,14.60
2023-03-11T14:50:05.143Z,5.80
2023-03-11T14:52:44.120Z,11.48
2023-03-11T14:55:18.937Z,7.97
2023-03-11T14:57:52.566Z,11.13
2023-03-11T15:00:27.365Z,7.65
2023-03-11T15:03:07.630Z,6.88
2023-03-11T15:05:43.107Z,12.95
2023-03-11T15:08:19.757Z,4.97
2023-03-11T15:11:07.936Z,3.30
2023-03-11T15:13:39.544Z,7.60
2023-03-11T15:16:24.639Z,10.88
2023-03-11T15:18:55.291Z,9.55
2023-03-11T15:21:27.395Z,10.13
2023-03-11T15:24:06.869Z,9.73
2023-03-11T15:26:38.784Z,7.93
2023-03-11T15:29:17.367Z,5.22
2023-03-11T15:31:49.541Z,6.30
2023-03-11T15:34:30.929Z,10.45
2023-03-11T15:37:26.798Z,11.25
2023-03-11T15:40:15.376Z,9.32
2023-03-11T15:42:45.773Z,9.52
2023-03-11T15:45:21.201Z,5.93
2023-03-11T15:47:53.280Z,5.65
2023-03-11T15:50:40.127Z,8.70
2023-03-11T15:53:17.424Z,9.48
2023-03-11T15:55:51.318Z,7.65
2023-03-11T15:58:23.679Z,7.80
2023-03-11T16:00:56.315Z,6.90
2023-03-11T16:03:28.759Z,8.38
2023-03-11T16:06:00.797Z,9.85
2023-03-11T16:08:31.324Z,12.73
2023-03-11T16:11:04.487Z,5.93
2023-03-11T16:13:34.976Z,7.38
2023-03-11T16:16:05.677Z,8.43
2023-03-11T16:18:36.516Z,5.50
2023-03-11T16:21:11.843Z,7.72
2023-03-11T16:23:51.670Z,7.90
2023-03-11T16:26:26.047Z,7.72
2023-03-11T16:28:59.747Z,6.95
2023-03-11T16:31:32.397Z,9.77
2023-03-11T16:34:02.927Z,9.23
2023-03-11T16:36:33.569Z,8.07
2023-03-11T16:39:04.204Z,10.13
2023-03-11T16:41:45.069Z,6.75
2023-03-11T16:44:15.892Z,6.35
2023-03-11T16:46:46.549Z,4.03
2023-03-11T16:49:17.058Z,6.45
2023-03-11T16:51:47.663Z,6.68
2023-03-11T16:54:18.177Z,6.32
2023-03-11T16:56:51.347Z,6.47
2023-03-11T16:59:21.971Z,9.98
2023-03-11T17:01:52.630Z,2.88
2023-03-11T17:04:23.230Z,6.47
2023-03-11T17:06:53.956Z,4.82
2023-03-11T17:09:25.009Z,5.05
2023-03-11T17:11:58.293Z,5.10
2023-03-11T17:14:28.855Z,6.28
2023-03-11T17:16:59.433Z,5.20
2023-03-11T17:19:29.950Z,6.20
2023-03-11T17:22:00.754Z,5.72
2023-03-11T17:24:32.413Z,3.45
2023-03-11T17:27:05.618Z,3.85
2023-03-11T17:29:36.817Z,6.68
2023-03-11T17:32:08.978Z,3.42
2023-03-11T17:34:39.583Z,5.63
2023-03-11T17:37:10.367Z,2.15
2023-03-11T17:39:40.889Z,3.63
2023-03-11T17:42:14.173Z,5.38
2023-03-11T17:44:51.469Z,12.75
2023-03-11T17:47:26.257Z,4.53
2023-03-11T17:49:56.945Z,4.75
2023-03-11T17:52:27.727Z,3.58
2023-03-11T17:54:58.269Z,3.97
2023-03-11T17:57:39.883Z,5.13
2023-03-11T18:00:16.167Z,1.80
2023-03-11T18:02:46.945Z,2.85
2023-03-11T18:05:18.748Z,2.20
2023-03-11T18:07:49.444Z,3.42
2023-03-11T18:10:20.431Z,4.18
2023-03-11T18:12:53.773Z,2.95
2023-03-11T18:15:24.663Z,3.35
2023-03-11T18:17:57.176Z,3.05
2023-03-11T18:20:27.788Z,1.42
2023-03-11T18:22:58.587Z,3.97
2023-03-11T18:25:29.283Z,4.13
2023-03-11T18:28:04.034Z,3.22
2023-03-11T18:30:34.532Z,3.37
2023-03-11T18:33:05.228Z,2.47
2023-03-11T18:35:35.834Z,3.67
2023-03-11T18:38:06.488Z,3.25
2023-03-11T18:40:36.962Z,4.80
2023-03-11T18:43:10.173Z,1.77
2023-03-11T18:45:42.812Z,1.83
2023-03-11T18:48:13.898Z,4.85
2023-03-11T18:50:44.448Z,2.00
2023-03-11T18:53:15.139Z,1.80
2023-03-11T18:55:45.649Z,2.50
2023-03-11T18:58:18.986Z,2.65
2023-03-11T19:00:50.219Z,2.70
2023-03-11T19:03:20.822Z,1.30
2023-03-11T19:05:52.666Z,1.98
2023-03-11T19:08:23.125Z,2.30
2023-03-11T19:10:53.656Z,3.10
2023-03-11T19:13:40.652Z,2.10
2023-03-11T19:16:17.661Z,2.50
2023-03-11T19:18:48.918Z,5.47
2023-03-11T19:21:20.622Z,6.53
2023-03-11T19:23:53.112Z,2.10
2023-03-11T19:26:33.818Z,6.97
2023-03-11T19:29:15.273Z,2.10
2023-03-11T19:31:46.505Z,4.43
2023-03-11T19:34:17.197Z,3.65
2023-03-11T19:36:48.343Z,4.93
2023-03-11T19:39:19.169Z,3.67
2023-03-11T19:41:50.009Z,3.10
2023-03-11T19:44:23.303Z,4.20
2023-03-11T19:46:53.998Z,3.88
2023-03-11T19:49:25.249Z,9.48
2023-03-11T19:51:56.302Z,2.97
2023-03-11T19:54:26.955Z,2.63
2023-03-11T19:56:57.519Z,1.85
2023-03-11T19:59:31.641Z,2.38
2023-03-11T20:02:03.132Z,2.58
2023-03-11T20:04:33.798Z,2.30
2023-03-11T20:07:04.363Z,1.98
2023-03-11T20:09:35.454Z,1.90
2023-03-11T20:12:06.071Z,3.88
2023-03-11T20:14:39.490Z,1.45
2023-03-11T20:17:09.945Z,2.78
2023-03-11T20:19:40.668Z,1.05
2023-03-11T20:22:11.245Z,3.90
2023-03-11T20:24:41.901Z,3.97
2023-03-11T20:27:12.555Z,2.70
2023-03-11T20:29:45.811Z,2.65
2023-03-11T20:32:16.464Z,2.65
2023-03-11T20:34:47.442Z,3.88
2023-03-11T20:37:18.172Z,2.42
2023-03-11T20:39:48.809Z,8.05
2023-03-11T20:42:19.439Z,2.92
2023-03-11T20:44:54.982Z,2.28
2023-03-11T20:49:57.348Z,5.90
2023-03-11T20:52:32.607Z,6.10
2023-03-11T20:55:03.258Z,2.28
2023-03-11T20:57:33.947Z,4.18
2023-03-11T21:00:11.611Z,3.67
2023-03-11T21:02:43.640Z,1.77
2023-03-11T21:05:15.046Z,3.20
2023-03-11T21:07:45.628Z,1.58
2023-03-11T21:10:16.678Z,2.53
2023-03-11T21:12:47.376Z,1.95
2023-03-11T21:15:20.776Z,3.72
2023-03-11T21:17:51.330Z,1.38
2023-03-11T21:20:22.040Z,4.47
2023-03-11T21:22:52.678Z,4.68
2023-03-11T21:25:23.378Z,2.03
2023-03-11T21:27:53.870Z,3.05
2023-03-11T21:30:27.232Z,5.07
2023-03-11T21:32:57.790Z,3.10
2023-03-11T21:35:28.580Z,3.83
2023-03-11T21:37:59.306Z,8.45
2023-03-11T21:40:30.016Z,4.88
2023-03-11T21:43:00.464Z,4.60
2023-03-11T21:45:33.803Z,2.72
2023-03-11T21:48:06.908Z,5.70
2023-03-11T21:50:37.500Z,3.03
2023-03-11T21:53:08.173Z,3.38
2023-03-11T21:55:38.847Z,9.95
2023-03-11T21:58:09.491Z,7.20
2023-03-11T22:00:43.074Z,6.78
2023-03-11T22:03:13.947Z,5.45
2023-03-11T22:05:44.926Z,8.68
2023-03-11T22:08:15.846Z,10.70
2023-03-11T22:10:46.417Z,5.53
2023-03-11T22:13:17.481Z,15.35
2023-03-11T22:15:50.830Z,9.70
2023-03-11T22:18:21.623Z,9.07
2023-03-11T22:20:52.353Z,7.60
2023-03-11T22:23:23.161Z,8.75
2023-03-11T22:25:53.773Z,8.02
2023-03-11T22:28:24.596Z,9.38
2023-03-11T22:30:57.754Z,11.05
2023-03-11T22:33:28.962Z,12.18
2023-03-11T22:36:02.272Z,9.77
2023-03-11T22:38:33.119Z,9.82
2023-03-11T22:41:03.744Z,7.38
2023-03-11T22:43:34.324Z,9.98
2023-03-11T22:46:08.815Z,12.02
2023-03-11T22:48:39.496Z,12.03
2023-03-11T22:51:10.273Z,10.57
2023-03-11T22:53:40.801Z,13.40
2023-03-11T22:56:13.595Z,12.95
2023-03-11T22:58:44.573Z,6.38
2023-03-11T23:04:41.119Z,15.02
2023-03-11T23:07:11.622Z,7.95
2023-03-11T23:09:43.170Z,11.50
2023-03-11T23:12:13.704Z,8.30
2023-03-11T23:14:46.443Z,18.30
2023-03-11T23:17:16.976Z,8.18
2023-03-11T23:19:50.151Z,10.85
2023-03-11T23:22:20.615Z,10.50
2023-03-11T23:24:51.161Z,7.82
2023-03-11T23:27:22.461Z,12.93
2023-03-11T23:29:52.997Z,12.88
2023-03-11T23:32:23.615Z,11.82
2023-03-11T23:34:56.816Z,10.32
2023-03-11T23:37:27.800Z,6.13
2023-03-11T23:40:01.927Z,22.25
2023-03-11T23:42:36.393Z,8.60
2023-03-11T23:45:12.015Z,16.55
2023-03-11T23:47:45.620Z,10.75
2023-03-11T23:50:19.935Z,8.48
2023-03-11T23:52:51.739Z,6.95
2023-03-11T23:55:23.197Z,14.02
2023-03-11T23:57:57.484Z,8.32
